createdAt,value
2023-03-16T00:00:22.578Z,-0.44
2023-03-16T00:03:02.423Z,-0.46
2023-03-16T00:05:30.754Z,-0.46
2023-03-16T00:07:59.224Z,-0.45
2023-03-16T00:10:27.946Z,-0.45
2023-03-16T00:12:57.643Z,-0.44
2023-03-16T00:15:26.021Z,-0.44
2023-03-16T00:17:54.901Z,-0.44
2023-03-16T00:20:23.205Z,-0.43
2023-03-16T00:22:51.531Z,-0.44
2023-03-16T00:25:19.870Z,-0.43
2023-03-16T00:27:48.186Z,-0.42
2023-03-16T00:30:16.934Z,-0.43
2023-03-16T00:32:45.287Z,-0.44
2023-03-16T00:35:13.632Z,-0.45
2023-03-16T00:37:43.699Z,-0.45
2023-03-16T00:40:12.836Z,-0.45
2023-03-16T00:42:41.527Z,-0.45
2023-03-16T00:45:10.851Z,-0.46
2023-03-16T00:47:39.268Z,-0.46
2023-03-16T00:50:08.359Z,-0.47
2023-03-16T00:52:36.688Z,-0.48
2023-03-16T00:55:05.564Z,-0.49
2023-03-16T00:57:34.310Z,-0.50
2023-03-16T01:02:45.473Z,-0.52
2023-03-16T01:05:14.653Z,-0.54
2023-03-16T01:07:43.124Z,-0.55
2023-03-16T01:10:12.224Z,-0.55
2023-03-16T01:12:40.682Z,-0.56
2023-03-16T01:15:10.263Z,-0.56
2023-03-16T01:17:38.642Z,-0.56
2023-03-16T01:20:12.244Z,-0.55
2023-03-16T01:22:40.566Z,-0.55
2023-03-16T01:25:12.339Z,-0.55
2023-03-16T01:27:40.892Z,-0.54
2023-03-16T01:30:12.440Z,-0.54
2023-03-16T01:32:41.737Z,-0.53
2023-03-16T01:35:10.365Z,-0.54
2023-03-16T01:37:38.744Z,-0.53
2023-03-16T01:40:09.094Z,-0.54
2023-03-16T01:43:23.536Z,-0.54
2023-03-16T01:46:07.153Z,-0.56
2023-03-16T01:49:05.667Z,-0.59
2023-03-16T01:51:52.301Z,-0.61
2023-03-16T01:54:28.231Z,-0.63
2023-03-16T01:57:02.892Z,-0.64
2023-03-16T01:59:38.781Z,-0.65
2023-03-16T02:02:09.238Z,-0.65
2023-03-16T02:04:49.094Z,-0.64
2023-03-16T02:07:20.727Z,-0.63
2023-03-16T02:09:53.584Z,-0.63
2023-03-16T02:12:22.278Z,-0.63
2023-03-16T02:14:52.042Z,-0.63
2023-03-16T02:17:27.715Z,-0.62
2023-03-16T02:20:15.796Z,-0.62
2023-03-16T02:22:48.306Z,-0.62
2023-03-16T02:25:19.050Z,-0.62
2023-03-16T02:28:30.240Z,-0.63
2023-03-16T02:30:58.737Z,-0.64
2023-03-16T02:33:29.017Z,-0.65
2023-03-16T02:35:57.330Z,-0.66
2023-03-16T02:38:25.702Z,-0.67
2023-03-16T02:41:20.630Z,-0.68
2023-03-16T02:44:15.335Z,-0.69
2023-03-16T02:46:44.528Z,-0.69
2023-03-16T02:52:11.349Z,-0.68
2023-03-16T02:54:39.814Z,-0.69
2023-03-16T02:57:08.363Z,-0.68
2023-03-16T02:59:36.708Z,-0.69
2023-03-16T03:02:05.205Z,-0.68
2023-03-16T03:04:33.500Z,-0.68
2023-03-16T03:07:04.934Z,-0.67
2023-03-16T03:09:33.608Z,-0.66
2023-03-16T03:12:01.967Z,-0.66
2023-03-16T03:14:30.403Z,-0.65
2023-03-16T03:16:58.750Z,-0.65
2023-03-16T03:19:27.053Z,-0.65
2023-03-16T03:21:58.167Z,-0.64
2023-03-16T03:24:28.150Z,-0.64
2023-03-16T03:26:56.568Z,-0.63
2023-03-16T03:29:24.989Z,-0.63
2023-03-16T03:31:53.392Z,-0.62
2023-03-16T03:34:21.735Z,-0.63
2023-03-16T03:36:50.071Z,-0.63
2023-03-16T03:39:18.842Z,-0.64
2023-03-16T03:41:47.750Z,-0.64
2023-03-16T03:44:16.279Z,-0.67
2023-03-16T03:46:44.710Z,-0.69
2023-03-16T03:49:13.229Z,-0.72
2023-03-16T03:51:41.697Z,-0.75
2023-03-16T03:54:10.555Z,-0.77
2023-03-16T03:56:38.989Z,-0.81
2023-03-16T03:59:07.387Z,-0.84
2023-03-16T04:01:35.751Z,-0.87
2023-03-16T04:04:04.054Z,-0.91
2023-03-16T04:06:32.513Z,-0.93
2023-03-16T04:09:01.092Z,-0.96
2023-03-16T04:11:29.576Z,-0.98
2023-03-16T04:13:57.856Z,-1.01
2023-03-16T04:16:27.085Z,-1.02
2023-03-16T04:18:56.634Z,-1.04
2023-03-16T04:21:25.293Z,-1.04
2023-03-16T04:23:54.477Z,-1.04
2023-03-16T04:26:23.029Z,-1.05
2023-03-16T04:28:52.663Z,-1.05
2023-03-16T04:31:21.055Z,-1.05
2023-03-16T04:33:49.909Z,-1.05
2023-03-16T04:36:18.264Z,-1.05
2023-03-16T04:38:46.678Z,-1.06
2023-03-16T04:41:15.325Z,-1.07
2023-03-16T04:43:43.964Z,-1.07
2023-03-16T04:46:12.319Z,-1.07
2023-03-16T04:48:40.794Z,-1.07
2023-03-16T04:51:09.150Z,-1.07
2023-03-16T04:53:37.462Z,-1.07
2023-03-16T04:56:07.534Z,-1.06
2023-03-16T04:58:35.931Z,-1.06
2023-03-16T05:01:04.290Z,-1.06
2023-03-16T05:03:32.800Z,-1.06
2023-03-16T05:06:01.217Z,-1.05
2023-03-16T05:08:29.572Z,-1.05
2023-03-16T05:10:59.334Z,-1.04
2023-03-16T05:13:27.813Z,-1.04
2023-03-16T05:15:56.235Z,-1.04
2023-03-16T05:18:25.012Z,-1.04
2023-03-16T05:20:56.023Z,-1.03
2023-03-16T05:23:24.671Z,-1.01
2023-03-16T05:25:52.979Z,-0.99
2023-03-16T05:28:21.335Z,-0.97
2023-03-16T05:30:49.711Z,-0.95
2023-03-16T05:33:18.087Z,-0.92
2023-03-16T05:35:46.480Z,-0.89
2023-03-16T05:38:15.856Z,-0.87
2023-03-16T05:40:44.241Z,-0.83
2023-03-16T05:43:12.692Z,-0.78
2023-03-16T05:45:40.985Z,-0.73
2023-03-16T05:48:09.346Z,-0.68
2023-03-16T05:50:37.768Z,-0.63
2023-03-16T05:53:06.137Z,-0.56
2023-03-16T05:55:34.710Z,-0.51
2023-03-16T05:58:05.612Z,-0.46
2023-03-16T06:00:34.084Z,-0.41
2023-03-16T06:03:02.525Z,-0.35
2023-03-16T06:05:32.123Z,-0.29
2023-03-16T06:08:01.429Z,-0.22
2023-03-16T06:10:30.270Z,-0.14
2023-03-16T06:12:59.981Z,-0.07
2023-03-16T06:15:30.558Z,-0.00
2023-03-16T06:17:59.098Z,0.08
2023-03-16T06:20:27.764Z,0.14
2023-03-16T06:22:56.225Z,0.21
2023-03-16T06:25:24.614Z,0.28
2023-03-16T06:27:52.948Z,0.34
2023-03-16T06:30:21.430Z,0.40
2023-03-16T06:32:49.798Z,0.47
2023-03-16T06:35:18.158Z,0.53
2023-03-16T06:37:46.591Z,0.58
2023-03-16T06:40:14.933Z,0.65
2023-03-16T06:42:45.678Z,0.70
2023-03-16T06:45:16.712Z,0.75
2023-03-16T06:47:45.022Z,0.82
2023-03-16T06:50:13.506Z,0.88
2023-03-16T06:52:41.824Z,0.93
2023-03-16T06:55:12.517Z,0.98
2023-03-16T06:57:41.988Z,1.04
2023-03-16T07:00:15.389Z,1.11
2023-03-16T07:02:43.939Z,1.18
2023-03-16T07:05:13.267Z,1.25
2023-03-16T07:07:42.844Z,1.33
2023-03-16T07:10:14.886Z,1.40
2023-03-16T07:12:44.478Z,1.49
2023-03-16T07:15:13.444Z,1.56
2023-03-16T07:17:42.685Z,1.62
2023-03-16T07:20:12.813Z,1.70
2023-03-16T07:22:41.918Z,1.77
2023-03-16T07:25:11.556Z,1.83
2023-03-16T07:27:41.344Z,1.91
2023-03-16T07:30:14.227Z,1.97
2023-03-16T07:32:42.811Z,2.05
2023-03-16T07:35:11.759Z,2.13
2023-03-16T07:37:40.306Z,2.21
2023-03-16T07:40:10.394Z,2.31
2023-03-16T07:42:38.765Z,2.39
2023-03-16T07:45:08.747Z,2.47
2023-03-16T07:47:37.036Z,2.53
2023-03-16T07:50:06.293Z,2.60
2023-03-16T07:52:37.388Z,2.67
2023-03-16T07:55:06.718Z,2.74
2023-03-16T07:57:35.272Z,2.84
2023-03-16T08:00:05.335Z,2.93
2023-03-16T08:02:33.758Z,3.03
2023-03-16T08:05:02.133Z,3.12
2023-03-16T08:07:31.894Z,3.21
2023-03-16T08:10:01.004Z,3.32
2023-03-16T08:12:29.428Z,3.44
2023-03-16T08:14:57.872Z,3.53
2023-03-16T08:17:26.205Z,3.62
2023-03-16T08:19:54.581Z,3.72
2023-03-16T08:22:23.700Z,3.81
2023-03-16T08:24:52.232Z,3.90
2023-03-16T08:27:20.641Z,4.02
2023-03-16T08:29:53.376Z,4.12
2023-03-16T08:32:22.037Z,4.23
2023-03-16T08:34:50.416Z,4.35
2023-03-16T08:37:18.831Z,4.48
2023-03-16T08:39:47.243Z,4.59
2023-03-16T08:42:16.818Z,4.69
2023-03-16T08:44:45.266Z,4.79
2023-03-16T08:47:14.312Z,4.87
2023-03-16T08:49:42.783Z,4.99
2023-03-16T08:52:12.840Z,5.10
2023-03-16T08:54:47.117Z,5.20
2023-03-16T08:57:21.319Z,5.35
2023-03-16T08:59:49.843Z,5.48
2023-03-16T09:02:18.658Z,5.60
2023-03-16T09:04:47.447Z,5.72
2023-03-16T09:07:15.889Z,5.83
2023-03-16T09:09:45.226Z,5.98
2023-03-16T09:12:13.775Z,6.10
2023-03-16T09:14:42.265Z,6.23
2023-03-16T09:17:11.827Z,6.42
2023-03-16T09:19:51.137Z,6.59
2023-03-16T09:22:22.009Z,6.74
2023-03-16T09:24:51.341Z,6.89
2023-03-16T09:27:20.719Z,7.09
2023-03-16T09:29:52.972Z,7.33
2023-03-16T09:32:21.744Z,7.51
2023-03-16T09:34:50.673Z,7.73
2023-03-16T09:37:18.960Z,7.95
2023-03-16T09:39:49.412Z,8.16
2023-03-16T09:42:29.852Z,8.35
2023-03-16T09:45:38.731Z,8.54
2023-03-16T09:48:10.829Z,8.76
2023-03-16T09:50:48.926Z,9.02
2023-03-16T09:53:40.334Z,9.22
2023-03-16T09:56:25.353Z,9.45
2023-03-16T09:58:55.300Z,9.70
2023-03-16T10:01:38.277Z,9.86
2023-03-16T10:04:21.985Z,9.97
2023-03-16T10:07:45.125Z,10.14
2023-03-16T10:10:14.582Z,10.31
2023-03-16T10:12:50.404Z,10.44
2023-03-16T10:15:27.116Z,10.60
2023-03-16T10:18:07.194Z,10.89
2023-03-16T10:20:36.668Z,11.06
2023-03-16T10:23:35.306Z,11.28
2023-03-16T10:26:13.860Z,11.53
2023-03-16T10:28:43.574Z,11.57
2023-03-16T10:31:14.683Z,11.51
2023-03-16T10:33:43.799Z,11.57
2023-03-16T10:36:33.803Z,11.64
2023-03-16T10:39:10.885Z,11.37
2023-03-16T10:41:47.885Z,11.21
2023-03-16T10:44:25.611Z,11.34
2023-03-16T10:47:05.402Z,11.58
2023-03-16T10:49:42.143Z,11.90
2023-03-16T10:52:24.998Z,12.01
2023-03-16T10:55:00.461Z,11.84
2023-03-16T10:57:35.502Z,11.98
2023-03-16T11:00:22.229Z,12.21
2023-03-16T11:02:56.839Z,12.43
2023-03-16T11:05:32.352Z,12.57
2023-03-16T11:08:19.422Z,12.50
2023-03-16T11:11:01.087Z,12.37
2023-03-16T11:13:36.027Z,12.48
2023-03-16T11:16:25.910Z,12.33
2023-03-16T11:19:04.886Z,12.16
2023-03-16T11:21:59.832Z,12.25
2023-03-16T11:24:42.810Z,12.42
2023-03-16T11:27:30.353Z,12.73
2023-03-16T11:30:09.791Z,13.00
2023-03-16T11:32:49.083Z,13.17
2023-03-16T11:35:41.989Z,13.33
2023-03-16T11:38:26.647Z,13.61
2023-03-16T11:41:00.319Z,13.71
2023-03-16T11:43:37.053Z,13.75
2023-03-16T11:46:31.679Z,13.95
2023-03-16T11:49:58.755Z,14.08
2023-03-16T11:53:12.255Z,14.17
2023-03-16T11:56:16.227Z,14.39
2023-03-16T11:59:01.361Z,14.65
2023-03-16T12:02:06.156Z,14.82
2023-03-16T12:04:51.710Z,14.81
2023-03-16T12:08:11.003Z,14.95
2023-03-16T12:11:28.764Z,15.12
2023-03-16T12:14:20.004Z,15.13
2023-03-16T12:17:01.265Z,15.28
2023-03-16T12:20:05.744Z,15.50
2023-03-16T12:22:45.215Z,15.58
2023-03-16T12:25:22.208Z,15.63
2023-03-16T12:27:58.626Z,15.69
2023-03-16T12:30:59.221Z,15.64
2023-03-16T12:33:52.987Z,15.46
2023-03-16T12:37:10.413Z,15.33
2023-03-16T12:40:07.699Z,15.38
2023-03-16T12:42:39.914Z,15.48
2023-03-16T12:45:22.758Z,15.68
2023-03-16T12:48:14.608Z,15.84
2023-03-16T12:50:53.177Z,16.03
2023-03-16T12:53:42.302Z,16.09
2023-03-16T12:56:19.436Z,16.22
2023-03-16T12:58:50.971Z,16.34
2023-03-16T13:01:52.121Z,16.34
2023-03-16T13:04:44.490Z,16.30
2023-03-16T13:07:21.606Z,16.39
2023-03-16T13:09:57.430Z,16.33
2023-03-16T13:12:32.950Z,16.22
2023-03-16T13:15:02.153Z,16.18
2023-03-16T13:17:33.340Z,16.15
2023-03-16T13:20:30.838Z,16.24
2023-03-16T13:23:22.276Z,16.46
2023-03-16T13:26:03.454Z,16.59
2023-03-16T13:28:39.157Z,16.66
2023-03-16T13:31:37.288Z,16.64
2023-03-16T13:34:11.944Z,16.64
2023-03-16T13:36:44.209Z,16.62
2023-03-16T13:39:27.358Z,16.55
2023-03-16T13:42:08.965Z,16.55
2023-03-16T13:44:41.856Z,16.57
2023-03-16T13:47:20.237Z,16.72
2023-03-16T13:49:58.382Z,16.93
2023-03-16T13:52:31.002Z,17.00
2023-03-16T13:55:07.232Z,17.03
2023-03-16T13:57:38.952Z,17.03
2023-03-16T14:00:24.853Z,17.03
2023-03-16T14:02:59.583Z,17.13
2023-03-16T14:05:38.929Z,17.33
2023-03-16T14:08:20.332Z,17.44
2023-03-16T14:10:50.781Z,17.66
2023-03-16T14:13:28.098Z,17.88
2023-03-16T14:16:01.248Z,18.21
2023-03-16T14:19:01.866Z,18.54
2023-03-16T14:21:35.680Z,18.76
2023-03-16T14:24:07.083Z,19.00
2023-03-16T14:26:45.452Z,19.27
2023-03-16T14:29:24.912Z,19.60
2023-03-16T14:31:54.424Z,19.91
2023-03-16T14:34:40.846Z,20.13
2023-03-16T14:37:13.200Z,20.15
2023-03-16T14:39:42.583Z,20.23
2023-03-16T14:42:30.984Z,20.32
2023-03-16T14:45:02.647Z,20.45
2023-03-16T14:51:14.505Z,20.68
2023-03-16T14:53:42.957Z,20.78
2023-03-16T14:56:13.632Z,20.92
2023-03-16T14:59:43.779Z,21.10
2023-03-16T15:08:44.521Z,22.16
2023-03-16T15:11:13.802Z,22.50
2023-03-16T15:13:42.153Z,22.72
2023-03-16T15:16:13.997Z,23.03
2023-03-16T15:18:43.161Z,23.43
2023-03-16T15:21:29.652Z,23.75
2023-03-16T15:23:58.882Z,24.10
2023-03-16T15:26:41.166Z,24.35
2023-03-16T15:29:11.722Z,24.50
2023-03-16T15:31:40.198Z,24.74
2023-03-16T15:34:08.757Z,24.96
2023-03-16T15:36:37.603Z,25.15
2023-03-16T15:39:09.138Z,25.05
2023-03-16T15:41:47.279Z,24.64
2023-03-16T15:44:17.255Z,24.35
2023-03-16T15:46:45.719Z,24.17
2023-03-16T15:49:14.198Z,24.09
2023-03-16T15:51:42.541Z,23.90
2023-03-16T15:54:12.089Z,23.83
2023-03-16T15:56:54.584Z,23.77
2023-03-16T15:59:28.738Z,23.80
2023-03-16T16:01:57.571Z,23.86
2023-03-16T16:04:26.103Z,23.94
2023-03-16T16:06:55.377Z,23.96
2023-03-16T16:09:24.211Z,23.89
2023-03-16T16:11:52.722Z,23.61
2023-03-16T16:14:31.073Z,23.22
2023-03-16T16:16:59.590Z,22.82
2023-03-16T16:19:28.427Z,22.29
2023-03-16T16:21:57.309Z,21.70
2023-03-16T16:24:25.633Z,21.12
2023-03-16T16:26:55.758Z,20.60
2023-03-16T16:29:32.308Z,20.31
2023-03-16T16:32:01.215Z,19.67
2023-03-16T16:35:21.512Z,18.75
2023-03-16T16:37:51.326Z,17.81
2023-03-16T16:40:59.745Z,17.06
2023-03-16T16:43:42.818Z,16.20
2023-03-16T16:46:19.433Z,15.56
2023-03-16T16:49:14.949Z,15.00
2023-03-16T16:51:43.594Z,14.43
2023-03-16T16:54:18.371Z,13.95
2023-03-16T16:56:49.008Z,13.46
2023-03-16T16:59:31.520Z,13.01
2023-03-16T17:02:30.045Z,12.48
2023-03-16T17:04:58.663Z,11.88
2023-03-16T17:07:27.372Z,11.38
2023-03-16T17:09:56.252Z,10.89
2023-03-16T17:12:24.874Z,10.40
2023-03-16T17:14:53.376Z,9.97
2023-03-16T17:17:22.356Z,9.58
2023-03-16T17:19:51.738Z,9.21
2023-03-16T17:22:28.305Z,8.75
2023-03-16T17:24:56.859Z,8.31
2023-03-16T17:27:32.203Z,7.94
2023-03-16T17:30:01.932Z,7.62
2023-03-16T17:32:31.018Z,7.36
2023-03-16T17:34:59.389Z,7.20
2023-03-16T17:37:28.707Z,7.10
2023-03-16T17:39:57.727Z,7.00
2023-03-16T17:42:27.049Z,6.86
2023-03-16T17:44:56.543Z,6.65
2023-03-16T17:47:27.558Z,6.40
2023-03-16T17:49:57.175Z,6.15
2023-03-16T17:52:29.246Z,5.94
2023-03-16T17:54:57.687Z,5.75
2023-03-16T17:57:33.265Z,5.54
2023-03-16T18:00:08.903Z,5.34
2023-03-16T18:02:54.209Z,5.18
2023-03-16T18:05:35.281Z,5.05
2023-03-16T18:08:34.113Z,4.94
2023-03-16T18:11:07.994Z,4.85
2023-03-16T18:13:40.491Z,4.76
2023-03-16T18:16:18.079Z,4.68
2023-03-16T18:18:46.671Z,4.57
2023-03-16T18:21:24.659Z,4.48
2023-03-16T18:23:54.233Z,4.39
2023-03-16T18:26:24.660Z,4.31
2023-03-16T18:28:53.574Z,4.25
2023-03-16T18:31:28.301Z,4.19
2023-03-16T18:34:00.883Z,4.11
2023-03-16T18:36:33.312Z,4.03
2023-03-16T18:39:05.973Z,3.93
2023-03-16T18:41:35.113Z,3.86
2023-03-16T18:44:22.135Z,3.80
2023-03-16T18:46:57.639Z,3.73
2023-03-16T18:49:36.544Z,3.64
2023-03-16T18:52:17.470Z,3.56
2023-03-16T18:54:48.215Z,3.47
2023-03-16T18:57:20.155Z,3.37
2023-03-16T18:59:49.917Z,3.28
2023-03-16T19:02:38.888Z,3.18
2023-03-16T19:05:30.414Z,3.08
2023-03-16T19:07:59.442Z,2.98
2023-03-16T19:10:33.278Z,2.90
2023-03-16T19:13:02.066Z,2.83
2023-03-16T19:15:35.614Z,2.77
2023-03-16T19:18:04.023Z,2.70
2023-03-16T19:20:34.964Z,2.64
2023-03-16T19:23:19.823Z,2.59
2023-03-16T19:25:49.516Z,2.54
2023-03-16T19:28:33.868Z,2.51
2023-03-16T19:31:07.303Z,2.47
2023-03-16T19:33:35.869Z,2.41
2023-03-16T19:36:06.832Z,2.33
2023-03-16T19:38:35.620Z,2.27
2023-03-16T19:41:05.406Z,2.20
2023-03-16T19:43:33.878Z,2.15
2023-03-16T19:46:02.339Z,2.10
2023-03-16T19:48:33.840Z,2.05
2023-03-16T19:51:02.305Z,1.99
2023-03-16T19:53:30.747Z,1.94
2023-03-16T19:55:59.428Z,1.90
2023-03-16T19:58:42.728Z,1.84
2023-03-16T20:01:22.185Z,1.78
2023-03-16T20:03:51.729Z,1.72
2023-03-16T20:06:23.382Z,1.66
2023-03-16T20:08:51.920Z,1.63
2023-03-16T20:11:30.972Z,1.58
2023-03-16T20:14:00.668Z,1.54
2023-03-16T20:16:35.622Z,1.50
2023-03-16T20:19:13.652Z,1.45
2023-03-16T20:21:43.279Z,1.41
2023-03-16T20:24:16.353Z,1.37
2023-03-16T20:26:46.657Z,1.32
2023-03-16T20:29:31.296Z,1.29
2023-03-16T20:32:01.331Z,1.24
2023-03-16T20:34:32.341Z,1.19
2023-03-16T20:37:01.376Z,1.14
2023-03-16T20:39:30.765Z,1.09
2023-03-16T20:41:59.186Z,1.03
2023-03-16T20:44:30.327Z,0.99
2023-03-16T20:46:58.835Z,0.95
2023-03-16T20:49:32.921Z,0.91
2023-03-16T20:52:01.444Z,0.87
2023-03-16T20:54:32.879Z,0.81
2023-03-16T20:57:01.269Z,0.78
2023-03-16T20:59:30.418Z,0.74
2023-03-16T21:01:58.855Z,0.70
2023-03-16T21:04:28.852Z,0.65
2023-03-16T21:06:57.716Z,0.60
2023-03-16T21:09:26.662Z,0.57
2023-03-16T21:11:55.098Z,0.54
2023-03-16T21:14:24.715Z,0.51
2023-03-16T21:16:54.423Z,0.49
2023-03-16T21:19:24.118Z,0.45
2023-03-16T21:21:53.142Z,0.43
2023-03-16T21:24:21.981Z,0.40
2023-03-16T21:26:50.372Z,0.38
2023-03-16T21:29:22.054Z,0.35
2023-03-16T21:31:51.809Z,0.32
2023-03-16T21:34:30.692Z,0.29
2023-03-16T21:36:59.412Z,0.27
2023-03-16T21:39:28.490Z,0.24
2023-03-16T21:41:57.131Z,0.21
2023-03-16T21:44:26.074Z,0.18
2023-03-16T21:46:54.725Z,0.15
2023-03-16T21:49:23.401Z,0.13
2023-03-16T21:51:51.925Z,0.10
2023-03-16T21:54:20.380Z,0.08
2023-03-16T21:56:48.714Z,0.06
2023-03-16T21:59:17.193Z,0.04
2023-03-16T22:02:00.775Z,0.02
2023-03-16T22:04:30.328Z,-0.02
2023-03-16T22:06:58.804Z,-0.04
2023-03-16T22:09:30.400Z,-0.05
2023-03-16T22:11:58.936Z,-0.07
2023-03-16T22:14:27.400Z,-0.07
2023-03-16T22:16:56.906Z,-0.08
2023-03-16T22:19:27.256Z,-0.09
2023-03-16T22:21:59.246Z,-0.09
2023-03-16T22:24:30.988Z,-0.10
2023-03-16T22:26:59.479Z,-0.11
2023-03-16T22:29:36.704Z,-0.10
2023-03-16T22:32:14.980Z,-0.11
2023-03-16T22:34:49.295Z,-0.13
2023-03-16T22:37:23.050Z,-0.14
2023-03-16T22:39:53.029Z,-0.15
2023-03-16T22:42:38.949Z,-0.17
2023-03-16T22:45:28.571Z,-0.20
2023-03-16T22:48:00.274Z,-0.23
2023-03-16T22:50:34.065Z,-0.27
2023-03-16T22:53:07.420Z,-0.27
2023-03-16T22:55:39.780Z,-0.28
2023-03-16T22:58:22.162Z,-0.29
2023-03-16T23:00:50.728Z,-0.28
2023-03-16T23:03:22.406Z,-0.29
2023-03-16T23:05:51.792Z,-0.29
2023-03-16T23:08:23.471Z,-0.31
2023-03-16T23:10:53.539Z,-0.31
2023-03-16T23:13:25.547Z,-0.32
2023-03-16T23:15:55.414Z,-0.34
2023-03-16T23:18:26.098Z,-0.35
2023-03-16T23:20:54.424Z,-0.37
2023-03-16T23:23:22.810Z,-0.37
2023-03-16T23:25:51.146Z,-0.40
2023-03-16T23:28:24.592Z,-0.41
2023-03-16T23:30:53.021Z,-0.43
2023-03-16T23:33:21.865Z,-0.44
2023-03-16T23:35:50.247Z,-0.46
2023-03-16T23:38:18.604Z,-0.48
2023-03-16T23:40:46.931Z,-0.49
2023-03-16T23:43:16.195Z,-0.51
2023-03-16T23:45:46.669Z,-0.52
2023-03-16T23:48:21.550Z,-0.54
2023-03-16T23:50:53.145Z,-0.57
2023-03-16T23:53:22.794Z,-0.59
2023-03-16T23:55:51.566Z,-0.62
2023-03-16T23:58:20.053Z,-0.64
